createdAt,value
2023-05-19T09:04:00.069Z,5.05
2023-05-19T09:06:27.085Z,5.07
2023-05-19T09:08:53.799Z,4.85
2023-05-19T09:11:20.252Z,5.43
2023-05-19T09:13:46.712Z,6.00
2023-05-19T09:16:13.365Z,5.40
2023-05-19T09:18:39.930Z,5.55
2023-05-19T09:21:08.411Z,5.63
2023-05-19T09:23:34.858Z,5.28
2023-05-19T09:26:02.024Z,5.70
2023-05-19T09:28:29.202Z,5.40
2023-05-19T09:31:02.358Z,4.85
2023-05-19T09:33:29.087Z,5.53
2023-05-19T09:35:55.558Z,5.47
2023-05-19T09:38:23.692Z,5.68
2023-05-19T09:40:50.197Z,5.68
2023-05-19T09:43:16.651Z,5.70
2023-05-19T09:45:43.116Z,5.70
2023-05-19T09:48:09.668Z,5.63
2023-05-19T09:50:36.332Z,5.20
2023-05-19T09:53:03.853Z,5.70
2023-05-19T09:55:31.877Z,4.75
2023-05-19T09:57:58.495Z,5.28
2023-05-19T10:00:25.068Z,5.70
2023-05-19T10:02:51.575Z,5.65
2023-05-19T10:05:18.573Z,5.47
2023-05-19T10:07:45.284Z,5.70
2023-05-19T10:10:12.885Z,5.57
2023-05-19T10:12:40.909Z,5.50
2023-05-19T10:15:10.735Z,5.78
2023-05-19T10:17:38.484Z,5.32
2023-05-19T10:20:05.618Z,5.40
2023-05-19T10:22:32.077Z,5.25
2023-05-19T10:24:58.530Z,5.00
2023-05-19T10:27:25.704Z,5.30
2023-05-19T10:29:54.779Z,5.13
2023-05-19T10:32:24.930Z,5.15
2023-05-19T10:35:09.178Z,5.00
2023-05-19T10:37:41.572Z,4.68
2023-05-19T10:40:10.879Z,4.95
2023-05-19T10:42:41.033Z,4.65
2023-05-19T10:45:13.572Z,5.00
2023-05-19T10:47:40.751Z,4.47
2023-05-19T10:50:07.930Z,4.68
2023-05-19T10:52:37.569Z,4.32
2023-05-19T10:55:07.331Z,4.78
2023-05-19T10:57:34.054Z,4.25
2023-05-19T11:00:02.706Z,3.67
2023-05-19T11:02:40.761Z,4.17
2023-05-19T11:05:07.725Z,4.05
2023-05-19T11:07:35.062Z,4.38
2023-05-19T11:10:05.072Z,4.35
2023-05-19T11:12:39.446Z,4.57
2023-05-19T11:15:07.310Z,5.05
2023-05-19T11:17:35.118Z,4.72
2023-05-19T11:20:03.245Z,4.90
2023-05-19T11:22:29.658Z,4.32
2023-05-19T11:24:56.340Z,4.95
2023-05-19T11:27:26.587Z,4.60
2023-05-19T11:29:54.059Z,4.90
2023-05-19T11:32:21.051Z,4.82
2023-05-19T11:34:47.938Z,4.63
2023-05-19T11:37:16.101Z,4.63
2023-05-19T11:39:42.619Z,4.90
2023-05-19T11:42:09.118Z,4.43
2023-05-19T11:44:35.549Z,4.68
2023-05-19T11:47:02.288Z,5.10
2023-05-19T11:49:28.851Z,4.63
2023-05-19T11:51:55.391Z,4.80
2023-05-19T11:54:29.117Z,5.30
2023-05-19T11:56:55.996Z,5.38
2023-05-19T11:59:29.080Z,4.97
2023-05-19T12:01:55.473Z,5.65
2023-05-19T12:04:23.473Z,4.85
2023-05-19T12:06:50.286Z,5.53
2023-05-19T12:09:16.709Z,6.05
2023-05-19T12:11:44.585Z,5.82
2023-05-19T12:14:11.973Z,5.85
2023-05-19T12:16:38.510Z,5.93
2023-05-19T12:19:05.484Z,5.53
2023-05-19T12:21:34.257Z,5.20
2023-05-19T12:24:01.607Z,5.80
2023-05-19T12:26:28.016Z,5.43
2023-05-19T12:28:55.874Z,5.38
2023-05-19T12:31:23.116Z,5.00
2023-05-19T12:33:50.033Z,5.15
2023-05-19T12:36:17.418Z,5.35
2023-05-19T12:38:43.832Z,5.30
2023-05-19T12:41:10.989Z,5.30
2023-05-19T12:43:37.438Z,5.15
2023-05-19T12:46:11.838Z,4.70
2023-05-19T12:48:40.213Z,5.07
2023-05-19T12:51:06.687Z,5.30
2023-05-19T12:53:33.199Z,4.80
2023-05-19T12:55:59.619Z,5.75
2023-05-19T12:58:26.305Z,5.38
2023-05-19T13:00:56.182Z,5.40
2023-05-19T13:03:24.089Z,5.28
2023-05-19T13:05:50.932Z,5.35
2023-05-19T13:08:18.164Z,6.05
2023-05-19T13:10:44.978Z,5.00
2023-05-19T13:13:12.048Z,5.55
2023-05-19T13:15:40.649Z,5.38
2023-05-19T13:18:07.965Z,5.63
2023-05-19T13:20:36.040Z,5.43
2023-05-19T13:23:03.066Z,4.85
2023-05-19T13:25:29.575Z,4.30
2023-05-19T13:27:57.179Z,5.40
2023-05-19T13:30:24.080Z,5.20
2023-05-19T13:32:51.250Z,4.55
2023-05-19T13:35:17.908Z,4.90
2023-05-19T13:37:45.840Z,4.82
2023-05-19T13:40:13.460Z,4.88
2023-05-19T13:42:40.820Z,5.25
2023-05-19T13:45:11.525Z,5.00
2023-05-19T13:47:38.167Z,5.13
2023-05-19T13:50:05.295Z,4.70
2023-05-19T13:52:31.797Z,5.07
2023-05-19T13:54:59.657Z,4.72
2023-05-19T13:57:26.465Z,4.90
2023-05-19T14:00:01.669Z,5.00
2023-05-19T14:02:29.566Z,4.97
2023-05-19T14:04:56.048Z,4.60
2023-05-19T14:07:22.462Z,5.20
2023-05-19T14:09:49.108Z,4.60
2023-05-19T14:12:17.435Z,5.10
2023-05-19T14:14:43.902Z,4.80
2023-05-19T14:17:10.537Z,4.75
2023-05-19T14:19:36.967Z,4.65
2023-05-19T14:22:03.638Z,4.55
2023-05-19T14:24:30.564Z,5.20
2023-05-19T14:26:56.947Z,4.82
2023-05-19T14:29:24.741Z,5.25
2023-05-19T14:31:51.218Z,4.35
2023-05-19T14:34:17.635Z,4.50
2023-05-19T14:36:44.145Z,4.90
2023-05-19T14:39:10.549Z,5.00
2023-05-19T14:41:37.016Z,5.30
2023-05-19T14:44:03.568Z,5.05
2023-05-19T14:46:31.458Z,4.88
2023-05-19T14:48:57.980Z,5.28
2023-05-19T14:51:24.489Z,4.97
2023-05-19T14:53:50.952Z,5.35
2023-05-19T14:56:17.378Z,6.15
2023-05-19T14:58:43.766Z,5.68
2023-05-19T15:01:10.235Z,6.28
2023-05-19T15:03:38.127Z,5.95
2023-05-19T15:06:08.126Z,6.00
2023-05-19T15:08:34.643Z,6.43
2023-05-19T15:11:01.110Z,6.35
2023-05-19T15:13:27.666Z,6.40
2023-05-19T15:15:58.937Z,6.70
2023-05-19T15:18:31.408Z,6.70
2023-05-19T15:20:59.166Z,6.15
2023-05-19T15:23:25.609Z,6.13
2023-05-19T15:25:52.039Z,6.20
2023-05-19T15:28:19.249Z,6.07
2023-05-19T15:30:45.796Z,6.88
2023-05-19T15:33:12.306Z,6.32
2023-05-19T15:35:39.207Z,6.65
2023-05-19T15:38:07.034Z,6.10
2023-05-19T15:40:33.826Z,6.50
2023-05-19T15:43:00.714Z,6.35
2023-05-19T15:45:27.162Z,6.53
2023-05-19T15:47:53.628Z,6.70
2023-05-19T15:50:20.250Z,6.88
2023-05-19T15:52:47.103Z,6.30
2023-05-19T15:55:14.945Z,6.80
2023-05-19T15:57:41.367Z,6.53
2023-05-19T16:00:08.295Z,6.35
2023-05-19T16:02:34.912Z,6.25
2023-05-19T16:05:01.472Z,6.38
2023-05-19T16:07:27.944Z,6.32
2023-05-19T16:09:54.393Z,6.10
2023-05-19T16:12:22.132Z,6.20
2023-05-19T16:14:48.572Z,6.07
2023-05-19T16:17:14.962Z,5.95
2023-05-19T16:19:41.386Z,5.40
2023-05-19T16:22:07.844Z,6.28
2023-05-19T16:24:34.260Z,6.55
2023-05-19T16:27:00.679Z,7.05
2023-05-19T16:29:28.490Z,7.20
2023-05-19T16:31:54.953Z,6.90
2023-05-19T16:34:21.361Z,6.63
2023-05-19T16:36:47.814Z,6.22
2023-05-19T16:39:14.246Z,6.72
2023-05-19T16:41:40.650Z,6.50
2023-05-19T16:44:07.394Z,6.38
2023-05-19T16:46:35.305Z,6.63
2023-05-19T16:49:01.811Z,6.93
2023-05-19T16:51:28.244Z,6.65
2023-05-19T16:53:54.765Z,6.72
2023-05-19T16:56:21.167Z,6.85
2023-05-19T16:58:47.780Z,7.10
2023-05-19T17:01:14.276Z,8.73
2023-05-19T17:03:42.118Z,9.18
2023-05-19T17:06:08.589Z,8.15
2023-05-19T17:08:35.049Z,8.77
2023-05-19T17:11:01.549Z,7.97
2023-05-19T17:13:29.887Z,7.55
2023-05-19T17:15:57.261Z,7.63
2023-05-19T17:18:24.737Z,7.45
2023-05-19T17:20:53.981Z,7.50
2023-05-19T17:23:23.342Z,7.22
2023-05-19T17:28:18.395Z,7.25
2023-05-19T17:30:46.677Z,7.75
2023-05-19T17:33:14.469Z,7.95
2023-05-19T17:35:42.270Z,8.25
2023-05-19T17:38:10.145Z,8.25
2023-05-19T17:40:36.750Z,7.70
2023-05-19T17:43:04.514Z,8.10
2023-05-19T17:45:31.970Z,7.80
2023-05-19T17:47:59.790Z,8.45
2023-05-19T17:50:27.797Z,7.88
2023-05-19T17:53:01.470Z,7.63
2023-05-19T17:55:31.235Z,7.60
2023-05-19T17:57:58.936Z,7.93
2023-05-19T18:00:27.647Z,8.30
2023-05-19T18:02:54.461Z,8.30
2023-05-19T18:05:21.369Z,7.93
2023-05-19T18:07:48.011Z,7.88
2023-05-19T18:12:57.803Z,8.50
2023-05-19T18:18:00.028Z,8.85
2023-05-19T18:20:26.908Z,8.90
2023-05-19T18:22:53.439Z,8.50
2023-05-19T18:25:19.954Z,8.70
2023-05-19T18:27:46.494Z,8.52
2023-05-19T18:30:14.409Z,9.15
2023-05-19T18:32:40.865Z,8.57
2023-05-19T18:35:07.778Z,8.57
2023-05-19T18:37:34.237Z,9.18
2023-05-19T18:40:00.729Z,8.90
2023-05-19T18:42:27.206Z,9.35
2023-05-19T18:44:53.612Z,9.60
2023-05-19T18:47:21.388Z,8.68
2023-05-19T18:49:47.806Z,10.07
2023-05-19T18:52:14.530Z,9.60
2023-05-19T18:54:40.931Z,8.98
2023-05-19T18:57:07.371Z,8.70
2023-05-19T18:59:33.955Z,9.35
2023-05-19T19:02:00.576Z,9.63
2023-05-19T19:04:28.387Z,9.48
2023-05-19T19:06:54.870Z,10.48
2023-05-19T19:09:21.313Z,9.68
2023-05-19T19:11:47.833Z,9.52
2023-05-19T19:14:14.322Z,9.05
2023-05-19T19:16:40.815Z,8.63
2023-05-19T19:19:07.362Z,8.55
2023-05-19T19:21:35.643Z,9.15
2023-05-19T19:24:02.610Z,8.52
2023-05-19T19:26:29.155Z,8.02
2023-05-19T19:28:55.815Z,8.63
2023-05-19T19:31:23.083Z,8.20
2023-05-19T19:33:49.601Z,8.02
2023-05-19T19:36:16.040Z,8.30
2023-05-19T19:38:43.808Z,8.90
2023-05-19T19:41:10.383Z,8.27
2023-05-19T19:43:36.844Z,8.23
2023-05-19T19:46:04.058Z,8.30
2023-05-19T19:48:31.362Z,8.25
2023-05-19T19:50:58.036Z,8.70
2023-05-19T19:53:24.574Z,8.13
2023-05-19T19:56:02.442Z,8.40
2023-05-19T19:58:29.370Z,8.60
2023-05-19T20:00:56.501Z,8.10
2023-05-19T20:03:23.094Z,8.18
2023-05-19T20:05:49.772Z,8.00
2023-05-19T20:08:16.248Z,8.48
2023-05-19T20:10:42.717Z,8.65
2023-05-19T20:13:11.307Z,8.07
2023-05-19T20:15:39.567Z,8.80
2023-05-19T20:18:06.620Z,8.40
2023-05-19T20:20:33.441Z,8.25
2023-05-19T20:23:00.081Z,8.38
2023-05-19T20:25:26.614Z,8.35
2023-05-19T20:27:53.113Z,8.75
2023-05-19T20:30:21.744Z,8.30
2023-05-19T20:32:48.358Z,8.13
2023-05-19T20:35:15.246Z,8.20
2023-05-19T20:37:41.747Z,8.40
2023-05-19T20:40:08.652Z,7.53
2023-05-19T20:42:35.235Z,7.95
2023-05-19T20:45:01.647Z,7.63
2023-05-19T20:47:30.550Z,8.43
2023-05-19T20:49:59.485Z,8.20
2023-05-19T20:52:25.927Z,7.97
2023-05-19T20:54:52.392Z,7.45
2023-05-19T20:57:20.286Z,7.43
2023-05-19T20:59:47.183Z,6.60
2023-05-19T21:02:13.600Z,7.40
2023-05-19T21:04:41.484Z,7.00
2023-05-19T21:07:08.184Z,6.97
2023-05-19T21:09:34.701Z,7.30
2023-05-19T21:12:02.168Z,6.68
2023-05-19T21:14:28.617Z,6.82
2023-05-19T21:16:55.605Z,7.70
2023-05-19T21:19:22.331Z,6.88
2023-05-19T21:21:50.259Z,7.50
2023-05-19T21:24:16.726Z,6.45
2023-05-19T21:26:43.231Z,6.95
2023-05-19T21:29:10.076Z,7.10
2023-05-19T21:31:36.589Z,7.57
2023-05-19T21:34:03.483Z,7.07
2023-05-19T21:36:30.104Z,7.18
2023-05-19T21:38:58.004Z,7.10
2023-05-19T21:41:24.443Z,7.20
2023-05-19T21:43:50.977Z,7.40
2023-05-19T21:46:17.398Z,7.68
2023-05-19T21:48:44.064Z,7.45
2023-05-19T21:51:10.528Z,7.90
2023-05-19T21:53:36.961Z,7.28
2023-05-19T21:56:05.069Z,7.57
2023-05-19T21:58:31.597Z,7.70
2023-05-19T22:00:58.090Z,7.18
2023-05-19T22:03:24.698Z,7.35
2023-05-19T22:05:51.940Z,7.35
2023-05-19T22:08:20.210Z,7.45
2023-05-19T22:10:48.536Z,7.40
2023-05-19T22:13:16.443Z,6.95
2023-05-19T22:15:42.977Z,6.93
2023-05-19T22:18:09.478Z,7.32
2023-05-19T22:20:35.967Z,7.25
2023-05-19T22:23:02.408Z,7.50
2023-05-19T22:25:28.830Z,6.75
2023-05-19T22:27:55.452Z,6.78
2023-05-19T22:30:24.526Z,6.78
2023-05-19T22:32:51.051Z,8.05
2023-05-19T22:35:17.626Z,7.80
2023-05-19T22:37:44.114Z,7.55
2023-05-19T22:40:10.947Z,8.02
2023-05-19T22:42:37.383Z,8.05
2023-05-19T22:45:04.069Z,7.72
2023-05-19T22:47:31.897Z,7.78
2023-05-19T22:49:58.796Z,7.30
2023-05-19T22:52:25.184Z,7.45
2023-05-19T22:54:51.595Z,7.60
2023-05-19T22:57:18.117Z,8.30
2023-05-19T22:59:44.542Z,7.75
2023-05-19T23:02:11.033Z,7.25
2023-05-19T23:04:38.911Z,7.20
2023-05-19T23:07:05.389Z,7.40
2023-05-19T23:09:31.804Z,7.60
2023-05-19T23:11:58.250Z,7.55
2023-05-19T23:14:24.674Z,7.97
2023-05-19T23:16:51.180Z,6.78
2023-05-19T23:19:17.684Z,8.05
2023-05-19T23:21:45.693Z,7.40
2023-05-19T23:24:12.129Z,7.45
2023-05-19T23:26:38.558Z,7.53
2023-05-19T23:29:04.982Z,7.30
2023-05-19T23:31:31.485Z,7.80
2023-05-19T23:34:02.829Z,7.75
2023-05-19T23:36:29.268Z,8.10
2023-05-19T23:38:57.091Z,7.35
2023-05-19T23:41:23.524Z,7.60
2023-05-19T23:43:49.908Z,7.40
2023-05-19T23:46:16.382Z,8.02
2023-05-19T23:48:42.879Z,7.57
2023-05-19T23:51:09.541Z,7.45
2023-05-19T23:53:36.093Z,8.02
2023-05-19T23:56:03.946Z,7.88
2023-05-19T23:58:30.353Z,7.68
